sensor_id;sensor_type;location;lat;lon;timestamp;pressure;altitude;pressure_sealevel;temperature;humidity
61537;BME280;48695;53.480;-6.300;2023-02-07T00:01:14;102982.25;;;8.23;60.95
61537;BME280;48695;53.480;-6.300;2023-02-07T00:03:41;102985.81;;;8.27;60.76
61537;BME280;48695;53.480;-6.300;2023-02-07T00:06:15;102983.25;;;8.28;59.97
61537;BME280;48695;53.480;-6.300;2023-02-07T00:08:41;102991.16;;;8.33;60.48
61537;BME280;48695;53.480;-6.300;2023-02-07T00:11:15;102982.63;;;8.37;60.68
61537;BME280;48695;53.480;-6.300;2023-02-07T00:13:42;102986.97;;;8.38;61.48
61537;BME280;48695;53.480;-6.300;2023-02-07T00:16:09;102984.19;;;8.32;60.52
61537;BME280;48695;53.480;-6.300;2023-02-07T00:18:35;102923.75;;;8.06;60.44
61537;BME280;48695;53.480;-6.300;2023-02-07T00:21:06;102991.53;;;8.48;61.35
61537;BME280;48695;53.480;-6.300;2023-02-07T00:23:33;102996.78;;;8.51;61.89
61537;BME280;48695;53.480;-6.300;2023-02-07T00:25:59;103009.06;;;8.55;61.53
61537;BME280;48695;53.480;-6.300;2023-02-07T00:28:25;102992.56;;;8.55;61.36
61537;BME280;48695;53.480;-6.300;2023-02-07T00:30:50;102988.34;;;8.62;62.03
61537;BME280;48695;53.480;-6.300;2023-02-07T00:33:16;102991.88;;;8.64;61.34
61537;BME280;48695;53.480;-6.300;2023-02-07T00:35:41;102969.00;;;8.50;61.90
61537;BME280;48695;53.480;-6.300;2023-02-07T00:38:07;102994.63;;;8.71;62.07
61537;BME280;48695;53.480;-6.300;2023-02-07T00:40:33;102983.34;;;8.71;61.94
61537;BME280;48695;53.480;-6.300;2023-02-07T00:42:58;102978.22;;;8.74;62.25
61537;BME280;48695;53.480;-6.300;2023-02-07T00:45:23;102980.00;;;8.76;61.51
61537;BME280;48695;53.480;-6.300;2023-02-07T00:47:49;102984.41;;;8.79;61.99
61537;BME280;48695;53.480;-6.300;2023-02-07T00:50:14;102994.06;;;8.84;62.33
61537;BME280;48695;53.480;-6.300;2023-02-07T00:52:40;102985.28;;;8.81;61.71
61537;BME280;48695;53.480;-6.300;2023-02-07T00:55:05;102966.06;;;8.74;62.61
61537;BME280;48695;53.480;-6.300;2023-02-07T00:57:31;102988.06;;;8.89;62.04
61537;BME280;48695;53.480;-6.300;2023-02-07T00:59:56;102976.78;;;8.88;62.08
61537;BME280;48695;53.480;-6.300;2023-02-07T01:02:22;102962.69;;;8.80;61.80
61537;BME280;48695;53.480;-6.300;2023-02-07T01:04:47;102976.81;;;8.91;62.31
61537;BME280;48695;53.480;-6.300;2023-02-07T01:07:13;102976.03;;;8.94;62.59
61537;BME280;48695;53.480;-6.300;2023-02-07T01:09:38;102976.91;;;8.94;61.97
61537;BME280;48695;53.480;-6.300;2023-02-07T01:12:04;102976.03;;;8.95;62.64
61537;BME280;48695;53.480;-6.300;2023-02-07T01:14:29;102978.66;;;8.95;62.77
61537;BME280;48695;53.480;-6.300;2023-02-07T01:16:55;102967.22;;;8.89;62.04
61537;BME280;48695;53.480;-6.300;2023-02-07T01:19:20;102985.63;;;8.96;62.45
61537;BME280;48695;53.480;-6.300;2023-02-07T01:21:46;102971.69;;;8.94;61.58
61537;BME280;48695;53.480;-6.300;2023-02-07T01:24:11;102984.81;;;8.99;63.08
61537;BME280;48695;53.480;-6.300;2023-02-07T01:26:37;102954.03;;;8.81;62.96
61537;BME280;48695;53.480;-6.300;2023-02-07T01:29:03;102990.91;;;8.99;62.70
61537;BME280;48695;53.480;-6.300;2023-02-07T01:31:29;102993.50;;;8.99;62.92
61537;BME280;48695;53.480;-6.300;2023-02-07T01:33:57;102987.44;;;9.00;62.15
61537;BME280;48695;53.480;-6.300;2023-02-07T01:36:23;102987.41;;;8.99;62.66
61537;BME280;48695;53.480;-6.300;2023-02-07T01:38:51;102983.97;;;9.01;62.76
61537;BME280;48695;53.480;-6.300;2023-02-07T01:41:18;102980.41;;;8.96;62.80
61537;BME280;48695;53.480;-6.300;2023-02-07T01:43:55;102977.09;;;9.03;62.65
61537;BME280;48695;53.480;-6.300;2023-02-07T01:46:21;102980.47;;;8.99;62.91
61537;BME280;48695;53.480;-6.300;2023-02-07T01:48:47;102980.56;;;9.02;63.03
61537;BME280;48695;53.480;-6.300;2023-02-07T01:51:13;102983.16;;;9.02;62.99
61537;BME280;48695;53.480;-6.300;2023-02-07T01:53:39;102973.50;;;8.98;63.18
61537;BME280;48695;53.480;-6.300;2023-02-07T01:56:06;102978.75;;;9.00;63.27
61537;BME280;48695;53.480;-6.300;2023-02-07T01:58:34;102962.03;;;8.89;63.37
61537;BME280;48695;53.480;-6.300;2023-02-07T02:01:03;102992.72;;;9.03;63.05
61537;BME280;48695;53.480;-6.300;2023-02-07T02:03:35;103002.31;;;9.04;63.60
61537;BME280;48695;53.480;-6.300;2023-02-07T02:06:03;102989.19;;;9.00;63.40
61537;BME280;48695;53.480;-6.300;2023-02-07T02:08:29;102975.06;;;8.89;62.85
61537;BME280;48695;53.480;-6.300;2023-02-07T02:11:18;102996.22;;;9.05;62.48
61537;BME280;48695;53.480;-6.300;2023-02-07T02:26:19;103007.44;;;9.01;62.74
61537;BME280;48695;53.480;-6.300;2023-02-07T02:37:26;103011.69;;;8.96;63.23
61537;BME280;48695;53.480;-6.300;2023-02-07T02:40:07;102994.28;;;8.95;62.30
61537;BME280;48695;53.480;-6.300;2023-02-07T02:43:15;103001.25;;;8.96;62.36
61537;BME280;48695;53.480;-6.300;2023-02-07T02:45:50;102987.19;;;8.88;63.00
61537;BME280;48695;53.480;-6.300;2023-02-07T02:48:17;102988.88;;;8.86;63.52
61537;BME280;48695;53.480;-6.300;2023-02-07T02:50:45;102995.13;;;8.93;63.84
61537;BME280;48695;53.480;-6.300;2023-02-07T02:53:12;102985.44;;;8.87;63.62
61537;BME280;48695;53.480;-6.300;2023-02-07T03:04:13;102961.84;;;8.81;62.34
61537;BME280;48695;53.480;-6.300;2023-02-07T03:09:50;102978.66;;;8.95;63.03
61537;BME280;48695;53.480;-6.300;2023-02-07T03:18:23;102949.69;;;8.81;63.84
61537;BME280;48695;53.480;-6.300;2023-02-07T03:20:56;102976.91;;;8.94;63.56
61537;BME280;48695;53.480;-6.300;2023-02-07T03:23:22;102982.00;;;8.88;64.36
61537;BME280;48695;53.480;-6.300;2023-02-07T03:25:49;102979.38;;;8.88;63.86
61537;BME280;48695;53.480;-6.300;2023-02-07T03:28:17;102983.88;;;8.95;64.07
61537;BME280;48695;53.480;-6.300;2023-02-07T03:30:44;102998.69;;;8.98;62.95
61537;BME280;48695;53.480;-6.300;2023-02-07T03:33:13;102988.22;;;8.96;63.52
61537;BME280;48695;53.480;-6.300;2023-02-07T03:35:52;102982.13;;;8.94;63.70
61537;BME280;48695;53.480;-6.300;2023-02-07T03:38:22;102992.63;;;8.97;64.39
61537;BME280;48695;53.480;-6.300;2023-02-07T03:40:58;103001.31;;;8.99;63.71
61537;BME280;48695;53.480;-6.300;2023-02-07T03:43:31;102997.88;;;9.00;64.41
61537;BME280;48695;53.480;-6.300;2023-02-07T03:45:58;102995.13;;;8.93;64.54
61537;BME280;48695;53.480;-6.300;2023-02-07T03:48:23;102982.00;;;8.90;64.17
61537;BME280;48695;53.480;-6.300;2023-02-07T03:50:49;102995.25;;;9.00;64.68
61537;BME280;48695;53.480;-6.300;2023-02-07T03:53:16;102956.63;;;8.81;64.82
61537;BME280;48695;53.480;-6.300;2023-02-07T03:55:42;102983.81;;;8.92;64.74
61537;BME280;48695;53.480;-6.300;2023-02-07T03:58:07;102990.94;;;9.01;64.00
61537;BME280;48695;53.480;-6.300;2023-02-07T04:00:34;102992.72;;;9.03;64.95
61537;BME280;48695;53.480;-6.300;2023-02-07T04:03:00;102979.50;;;8.93;64.85
61537;BME280;48695;53.480;-6.300;2023-02-07T04:05:25;102985.78;;;9.02;64.66
61537;BME280;48695;53.480;-6.300;2023-02-07T04:07:51;102969.94;;;8.93;64.26
61537;BME280;48695;53.480;-6.300;2023-02-07T04:10:16;102973.41;;;8.92;64.59
61537;BME280;48695;53.480;-6.300;2023-02-07T04:12:42;102991.91;;;9.06;64.81
61537;BME280;48695;53.480;-6.300;2023-02-07T04:15:08;102962.03;;;8.90;64.69
61537;BME280;48695;53.480;-6.300;2023-02-07T04:17:34;102972.59;;;8.96;64.63
61537;BME280;48695;53.480;-6.300;2023-02-07T04:19:59;102980.59;;;9.05;64.88
61537;BME280;48695;53.480;-6.300;2023-02-07T04:22:26;102971.81;;;9.02;65.03
61537;BME280;48695;53.480;-6.300;2023-02-07T04:24:51;102973.63;;;9.04;64.40
61537;BME280;48695;53.480;-6.300;2023-02-07T04:27:17;102970.13;;;9.02;64.72
61537;BME280;48695;53.480;-6.300;2023-02-07T04:29:42;102967.44;;;8.98;64.30
61537;BME280;48695;53.480;-6.300;2023-02-07T04:32:07;102982.31;;;9.03;63.75
61537;BME280;48695;53.480;-6.300;2023-02-07T04:34:33;102971.69;;;8.94;64.68
61537;BME280;48695;53.480;-6.300;2023-02-07T04:36:58;102983.97;;;9.00;64.32
61537;BME280;48695;53.480;-6.300;2023-02-07T04:39:24;102989.16;;;8.98;64.81
61537;BME280;48695;53.480;-6.300;2023-02-07T04:41:49;102992.63;;;8.97;64.39
61537;BME280;48695;53.480;-6.300;2023-02-07T04:44:14;102952.16;;;8.74;64.86
61537;BME280;48695;53.480;-6.300;2023-02-07T04:46:40;102986.38;;;8.91;64.65
61537;BME280;48695;53.480;-6.300;2023-02-07T04:49:05;102982.91;;;8.92;64.28
61537;BME280;48695;53.480;-6.300;2023-02-07T04:51:31;102971.38;;;8.79;64.73
61537;BME280;48695;53.480;-6.300;2023-02-07T04:53:57;102983.66;;;8.86;64.58
61537;BME280;48695;53.480;-6.300;2023-02-07T04:56:23;102997.63;;;8.88;64.87
61537;BME280;48695;53.480;-6.300;2023-02-07T04:58:49;102977.38;;;8.76;64.34
61537;BME280;48695;53.480;-6.300;2023-02-07T05:01:14;102978.22;;;8.74;65.13
61537;BME280;48695;53.480;-6.300;2023-02-07T05:03:40;102994.09;;;8.86;64.73
61537;BME280;48695;53.480;-6.300;2023-02-07T05:06:05;102982.66;;;8.79;65.02
61537;BME280;48695;53.480;-6.300;2023-02-07T05:08:31;102974.72;;;8.73;64.84
61537;BME280;48695;53.480;-6.300;2023-02-07T05:10:56;102993.16;;;8.82;64.82
61537;BME280;48695;53.480;-6.300;2023-02-07T05:13:22;102977.31;;;8.72;64.80
61537;BME280;48695;53.480;-6.300;2023-02-07T05:15:48;103004.50;;;8.86;65.26
61537;BME280;48695;53.480;-6.300;2023-02-07T05:18:13;102996.69;;;8.86;65.11
61537;BME280;48695;53.480;-6.300;2023-02-07T05:20:39;102994.91;;;8.82;65.13
61537;BME280;48695;53.480;-6.300;2023-02-07T05:23:04;102990.59;;;8.84;65.04
61537;BME280;48695;53.480;-6.300;2023-02-07T05:25:30;103000.22;;;8.88;65.35
61537;BME280;48695;53.480;-6.300;2023-02-07T05:27:55;103002.84;;;8.88;64.64
61537;BME280;48695;53.480;-6.300;2023-02-07T05:30:21;103002.06;;;8.92;65.16
61537;BME280;48695;53.480;-6.300;2023-02-07T05:32:46;103006.41;;;8.93;65.49
61537;BME280;48695;53.480;-6.300;2023-02-07T05:35:34;103000.44;;;8.97;65.00
61537;BME280;48695;53.480;-6.300;2023-02-07T05:38:00;102997.81;;;8.97;65.14
61537;BME280;48695;53.480;-6.300;2023-02-07T05:40:26;102982.88;;;8.90;65.54
61537;BME280;48695;53.480;-6.300;2023-02-07T05:42:52;103000.47;;;9.00;65.29
61537;BME280;48695;53.480;-6.300;2023-02-07T05:45:18;102992.63;;;8.99;64.66
61537;BME280;48695;53.480;-6.300;2023-02-07T05:47:44;102984.72;;;8.94;65.07
61537;BME280;48695;53.480;-6.300;2023-02-07T05:50:09;103000.59;;;9.06;65.40
61537;BME280;48695;53.480;-6.300;2023-02-07T05:52:34;102993.50;;;8.98;65.24
61537;BME280;48695;53.480;-6.300;2023-02-07T05:55:00;103005.88;;;9.09;64.45
61537;BME280;48695;53.480;-6.300;2023-02-07T05:57:25;102989.19;;;9.01;65.19
61537;BME280;48695;53.480;-6.300;2023-02-07T05:59:51;102969.94;;;8.93;65.36
61537;BME280;48695;53.480;-6.300;2023-02-07T06:02:16;102983.06;;;8.98;65.31
61537;BME280;48695;53.480;-6.300;2023-02-07T06:04:42;103007.81;;;9.18;64.45
61537;BME280;48695;53.480;-6.300;2023-02-07T06:07:07;102973.56;;;9.01;65.30
61537;BME280;48695;53.480;-6.300;2023-02-07T06:09:33;103004.31;;;9.18;65.16
61537;BME280;48695;53.480;-6.300;2023-02-07T06:11:58;102979.78;;;9.08;64.93
61537;BME280;48695;53.480;-6.300;2023-02-07T06:14:23;103004.44;;;9.24;65.15
61537;BME280;48695;53.480;-6.300;2023-02-07T06:16:49;102979.84;;;9.11;64.40
61537;BME280;48695;53.480;-6.300;2023-02-07T06:19:15;102973.75;;;9.10;65.28
61537;BME280;48695;53.480;-6.300;2023-02-07T06:21:40;103008.88;;;9.29;65.36
61537;BME280;48695;53.480;-6.300;2023-02-07T06:24:06;103008.03;;;9.30;65.54
61537;BME280;48695;53.480;-6.300;2023-02-07T06:26:32;102936.91;;;8.92;64.96
61537;BME280;48695;53.480;-6.300;2023-02-07T06:28:58;102988.78;;;9.24;65.19
61537;BME280;48695;53.480;-6.300;2023-02-07T06:31:23;103011.59;;;9.35;65.57
61537;BME280;48695;53.480;-6.300;2023-02-07T06:33:48;103009.03;;;9.37;64.67
61537;BME280;48695;53.480;-6.300;2023-02-07T06:36:14;103011.69;;;9.39;64.77
61537;BME280;48695;53.480;-6.300;2023-02-07T06:38:39;103010.81;;;9.38;65.21
61537;BME280;48695;53.480;-6.300;2023-02-07T06:41:04;102988.84;;;9.27;65.49
61537;BME280;48695;53.480;-6.300;2023-02-07T06:43:35;103012.47;;;9.36;65.38
61537;BME280;48695;53.480;-6.300;2023-02-07T06:46:00;103009.09;;;9.42;65.54
61537;BME280;48695;53.480;-6.300;2023-02-07T06:48:26;103011.78;;;9.43;65.23
61537;BME280;48695;53.480;-6.300;2023-02-07T06:50:51;103010.88;;;9.43;65.09
61537;BME280;48695;53.480;-6.300;2023-02-07T06:53:16;102995.09;;;9.35;64.92
61537;BME280;48695;53.480;-6.300;2023-02-07T06:55:42;103010.06;;;9.47;65.40
61537;BME280;48695;53.480;-6.300;2023-02-07T06:58:07;103004.88;;;9.47;65.06
61537;BME280;48695;53.480;-6.300;2023-02-07T07:00:33;102996.94;;;9.42;65.26
61537;BME280;48695;53.480;-6.300;2023-02-07T07:02:59;103009.28;;;9.49;65.13
61537;BME280;48695;53.480;-6.300;2023-02-07T07:05:26;102985.41;;;9.29;65.38
61537;BME280;48695;53.480;-6.300;2023-02-07T07:07:51;103021.53;;;9.53;65.58
61537;BME280;48695;53.480;-6.300;2023-02-07T07:10:17;102997.81;;;9.41;65.54
61537;BME280;48695;53.480;-6.300;2023-02-07T07:12:42;103022.41;;;9.54;65.12
61537;BME280;48695;53.480;-6.300;2023-02-07T07:15:08;103015.38;;;9.51;65.13
61537;BME280;48695;53.480;-6.300;2023-02-07T07:17:34;103013.69;;;9.53;64.83
61537;BME280;48695;53.480;-6.300;2023-02-07T07:19:59;103018.09;;;9.57;65.24
61537;BME280;48695;53.480;-6.300;2023-02-07T07:22:25;103010.31;;;9.59;64.86
61537;BME280;48695;53.480;-6.300;2023-02-07T07:24:50;102983.97;;;9.45;64.76
61537;BME280;48695;53.480;-6.300;2023-02-07T07:27:16;103012.94;;;9.60;65.16
61537;BME280;48695;53.480;-6.300;2023-02-07T07:29:41;103003.31;;;9.56;65.38
61537;BME280;48695;53.480;-6.300;2023-02-07T07:32:07;103017.28;;;9.58;65.50
61537;BME280;48695;53.480;-6.300;2023-02-07T07:34:35;103019.91;;;9.61;64.92
61537;BME280;48695;53.480;-6.300;2023-02-07T07:37:01;103023.38;;;9.60;65.17
61537;BME280;48695;53.480;-6.300;2023-02-07T07:39:26;103026.00;;;9.62;65.20
61537;BME280;48695;53.480;-6.300;2023-02-07T07:41:52;103012.88;;;9.57;65.17
61537;BME280;48695;53.480;-6.300;2023-02-07T07:44:17;103011.09;;;9.53;65.16
61537;BME280;48695;53.480;-6.300;2023-02-07T07:46:42;103025.13;;;9.61;65.11
61537;BME280;48695;53.480;-6.300;2023-02-07T07:49:08;102960.16;;;9.27;64.98
61537;BME280;48695;53.480;-6.300;2023-02-07T07:51:33;102984.84;;;9.44;64.84
61537;BME280;48695;53.480;-6.300;2023-02-07T07:53:59;103022.50;;;9.58;65.25
61537;BME280;48695;53.480;-6.300;2023-02-07T07:56:24;103029.38;;;9.56;64.63
61537;BME280;48695;53.480;-6.300;2023-02-07T07:58:50;103029.31;;;9.52;64.47
61537;BME280;48695;53.480;-6.300;2023-02-07T08:01:15;103037.19;;;9.53;65.02
61537;BME280;48695;53.480;-6.300;2023-02-07T08:03:41;103012.47;;;9.36;64.93
61537;BME280;48695;53.480;-6.300;2023-02-07T08:06:06;103041.34;;;9.45;65.15
61537;BME280;48695;53.480;-6.300;2023-02-07T08:08:32;103038.66;;;9.42;64.83
61537;BME280;48695;53.480;-6.300;2023-02-07T08:11:05;103041.25;;;9.41;64.89
61537;BME280;48695;53.480;-6.300;2023-02-07T08:13:31;103048.09;;;9.34;65.05
61537;BME280;48695;53.480;-6.300;2023-02-07T08:15:56;103050.63;;;9.31;64.79
61537;BME280;48695;53.480;-6.300;2023-02-07T08:18:22;103048.81;;;9.27;65.04
61537;BME280;48695;53.480;-6.300;2023-02-07T08:20:48;103045.22;;;9.22;65.29
61537;BME280;48695;53.480;-6.300;2023-02-07T08:23:13;103045.94;;;9.15;65.06
61537;BME280;48695;53.480;-6.300;2023-02-07T08:25:39;103056.34;;;9.13;65.50
61537;BME280;48695;53.480;-6.300;2023-02-07T08:28:05;103046.59;;;9.04;65.38
61537;BME280;48695;53.480;-6.300;2023-02-07T08:30:31;103059.72;;;9.07;65.20
61537;BME280;48695;53.480;-6.300;2023-02-07T08:32:56;103059.63;;;9.03;64.79
61537;BME280;48695;53.480;-6.300;2023-02-07T08:35:21;103065.63;;;9.00;65.56
61537;BME280;48695;53.480;-6.300;2023-02-07T08:37:47;103036.66;;;8.87;65.35
61537;BME280;48695;53.480;-6.300;2023-02-07T08:40:13;103051.50;;;8.89;65.12
61537;BME280;48695;53.480;-6.300;2023-02-07T08:42:39;103067.22;;;8.94;64.97
61537;BME280;48695;53.480;-6.300;2023-02-07T08:45:05;103077.63;;;8.92;65.29
61537;BME280;48695;53.480;-6.300;2023-02-07T08:47:31;103072.34;;;8.89;64.88
61537;BME280;48695;53.480;-6.300;2023-02-07T08:49:56;103079.31;;;8.90;64.78
61537;BME280;48695;53.480;-6.300;2023-02-07T08:52:22;103070.59;;;8.88;65.67
61537;BME280;48695;53.480;-6.300;2023-02-07T08:54:48;103081.00;;;8.88;65.77
61537;BME280;48695;53.480;-6.300;2023-02-07T08:57:13;103058.13;;;8.75;65.61
61537;BME280;48695;53.480;-6.300;2023-02-07T08:59:40;103068.66;;;8.81;65.81
61537;BME280;48695;53.480;-6.300;2023-02-07T09:02:06;103079.25;;;8.87;66.02
61537;BME280;48695;53.480;-6.300;2023-02-07T09:04:31;103055.47;;;8.72;65.84
61537;BME280;48695;53.480;-6.300;2023-02-07T09:06:57;103089.69;;;8.87;65.63
61537;BME280;48695;53.480;-6.300;2023-02-07T09:09:22;103082.69;;;8.86;65.75
61537;BME280;48695;53.480;-6.300;2023-02-07T09:11:49;103081.81;;;8.86;65.33
61537;BME280;48695;53.480;-6.300;2023-02-07T09:14:15;103088.84;;;8.90;65.63
61537;BME280;48695;53.480;-6.300;2023-02-07T09:16:40;103056.38;;;8.74;66.41
61537;BME280;48695;53.480;-6.300;2023-02-07T09:19:06;103095.91;;;8.95;66.24
61537;BME280;48695;53.480;-6.300;2023-02-07T09:21:31;103091.66;;;8.97;65.98
61537;BME280;48695;53.480;-6.300;2023-02-07T09:23:57;103101.25;;;9.01;66.33
61537;BME280;48695;53.480;-6.300;2023-02-07T09:26:23;103094.31;;;9.02;66.42
61537;BME280;48695;53.480;-6.300;2023-02-07T09:28:50;103097.03;;;9.06;66.32
61537;BME280;48695;53.480;-6.300;2023-02-07T09:31:16;103086.56;;;9.03;66.22
61537;BME280;48695;53.480;-6.300;2023-02-07T09:33:42;103096.38;;;9.17;66.10
61537;BME280;48695;53.480;-6.300;2023-02-07T09:36:37;103106.25;;;9.30;65.84
61537;BME280;48695;53.480;-6.300;2023-02-07T09:39:03;103110.59;;;9.31;66.11
61537;BME280;48695;53.480;-6.300;2023-02-07T09:41:58;103104.72;;;9.41;65.84
61537;BME280;48695;53.480;-6.300;2023-02-07T09:47:21;103101.56;;;9.57;66.15
61537;BME280;48695;53.480;-6.300;2023-02-07T09:52:48;103092.19;;;9.67;65.45
61537;BME280;48695;53.480;-6.300;2023-02-07T09:57:48;103121.28;;;9.87;65.75
61537;BME280;48695;53.480;-6.300;2023-02-07T10:00:22;103118.75;;;9.92;65.92
61537;BME280;48695;53.480;-6.300;2023-02-07T10:02:56;103128.50;;;10.00;65.47
61537;BME280;48695;53.480;-6.300;2023-02-07T10:06:15;103124.25;;;10.05;65.63
61537;BME280;48695;53.480;-6.300;2023-02-07T10:08:15;103123.47;;;10.09;65.34
61537;BME280;48695;53.480;-6.300;2023-02-07T10:10:44;103125.31;;;10.17;65.25
61537;BME280;48695;53.480;-6.300;2023-02-07T10:16:09;103113.31;;;10.25;65.19
61537;BME280;48695;53.480;-6.300;2023-02-07T10:19:16;103113.41;;;10.31;64.91
61537;BME280;48695;53.480;-6.300;2023-02-07T10:24:58;103121.44;;;10.43;65.02
61537;BME280;48695;53.480;-6.300;2023-02-07T10:27:31;103125.88;;;10.49;64.80
61537;BME280;48695;53.480;-6.300;2023-02-07T10:30:20;103132.91;;;10.51;64.88
61537;BME280;48695;53.480;-6.300;2023-02-07T10:32:48;103133.88;;;10.58;64.95
61537;BME280;48695;53.480;-6.300;2023-02-07T10:35:29;103113.75;;;10.52;64.62
61537;BME280;48695;53.480;-6.300;2023-02-07T10:37:58;103137.50;;;10.66;64.90
61537;BME280;48695;53.480;-6.300;2023-02-07T10:40:51;103131.56;;;10.75;64.36
61537;BME280;48695;53.480;-6.300;2023-02-07T10:45:53;103112.34;;;10.73;64.38
61537;BME280;48695;53.480;-6.300;2023-02-07T10:48:20;103122.16;;;10.89;64.39
61537;BME280;48695;53.480;-6.300;2023-02-07T10:50:46;103128.34;;;10.94;64.16
61537;BME280;48695;53.480;-6.300;2023-02-07T10:56:21;103126.00;;;11.11;63.94
61537;BME280;48695;53.480;-6.300;2023-02-07T10:58:48;103125.19;;;11.16;63.88
61537;BME280;48695;53.480;-6.300;2023-02-07T11:01:22;103120.09;;;11.26;63.83
61537;BME280;48695;53.480;-6.300;2023-02-07T11:03:48;103120.13;;;11.29;63.86
61537;BME280;48695;53.480;-6.300;2023-02-07T11:06:22;103112.38;;;11.36;64.04
61537;BME280;48695;53.480;-6.300;2023-02-07T11:08:48;103102.84;;;11.43;64.07
61537;BME280;48695;53.480;-6.300;2023-02-07T11:11:28;103107.41;;;11.56;63.69
61537;BME280;48695;53.480;-6.300;2023-02-07T11:14:01;103088.97;;;11.50;63.73
61537;BME280;48695;53.480;-6.300;2023-02-07T11:16:27;103098.75;;;11.65;63.52
61537;BME280;48695;53.480;-6.300;2023-02-07T11:19:02;103103.28;;;11.80;63.25
61537;BME280;48695;53.480;-6.300;2023-02-07T11:21:39;103099.09;;;11.92;63.40
61537;BME280;48695;53.480;-6.300;2023-02-07T11:24:23;103100.03;;;11.99;63.37
61537;BME280;48695;53.480;-6.300;2023-02-07T11:29:19;103104.47;;;12.09;62.90
61537;BME280;48695;53.480;-6.300;2023-02-07T11:31:45;103105.53;;;12.27;63.43
61537;BME280;48695;53.480;-6.300;2023-02-07T11:36:53;103099.44;;;12.31;61.80
61537;BME280;48695;53.480;-6.300;2023-02-07T11:39:20;103094.19;;;12.29;62.12
61537;BME280;48695;53.480;-6.300;2023-02-07T11:42:00;103103.03;;;12.42;62.15
61537;BME280;48695;53.480;-6.300;2023-02-07T11:44:28;103107.38;;;12.40;61.70
61537;BME280;48695;53.480;-6.300;2023-02-07T11:46:56;103098.69;;;12.44;61.87
61537;BME280;48695;53.480;-6.300;2023-02-07T11:49:33;103107.44;;;12.49;61.48
61537;BME280;48695;53.480;-6.300;2023-02-07T11:52:04;103117.06;;;12.50;61.27
61537;BME280;48695;53.480;-6.300;2023-02-07T11:54:31;103122.31;;;12.52;61.39
61537;BME280;48695;53.480;-6.300;2023-02-07T11:57:02;103123.25;;;12.58;61.35
61537;BME280;48695;53.480;-6.300;2023-02-07T11:59:28;103140.72;;;12.59;61.20
61537;BME280;48695;53.480;-6.300;2023-02-07T12:01:57;103140.78;;;12.65;61.13
61537;BME280;48695;53.480;-6.300;2023-02-07T12:04:33;103135.56;;;12.71;61.55
61537;BME280;48695;53.480;-6.300;2023-02-07T12:07:40;103140.88;;;12.78;61.84
61537;BME280;48695;53.480;-6.300;2023-02-07T12:10:13;103139.13;;;12.80;60.83
61537;BME280;48695;53.480;-6.300;2023-02-07T12:13:03;103140.03;;;12.85;61.12
61537;BME280;48695;53.480;-6.300;2023-02-07T12:15:34;103141.84;;;12.92;61.05
61537;BME280;48695;53.480;-6.300;2023-02-07T12:18:05;103139.22;;;12.92;60.08
61537;BME280;48695;53.480;-6.300;2023-02-07T12:20:35;103129.66;;;13.00;60.12
61537;BME280;48695;53.480;-6.300;2023-02-07T12:23:10;103126.16;;;13.01;60.30
61537;BME280;48695;53.480;-6.300;2023-02-07T12:25:47;103132.34;;;13.11;60.77
61537;BME280;48695;53.480;-6.300;2023-02-07T12:28:33;103092.06;;;13.01;60.53
61537;BME280;48695;53.480;-6.300;2023-02-07T12:31:06;103115.81;;;13.22;60.27
61537;BME280;48695;53.480;-6.300;2023-02-07T12:34:08;103119.34;;;13.32;59.85
61537;BME280;48695;53.480;-6.300;2023-02-07T12:36:35;103137.78;;;13.43;59.77
61537;BME280;48695;53.480;-6.300;2023-02-07T12:39:19;103112.44;;;13.49;59.36
61537;BME280;48695;53.480;-6.300;2023-02-07T12:41:54;103122.06;;;13.52;59.10
61537;BME280;48695;53.480;-6.300;2023-02-07T12:50:07;103113.34;;;13.62;58.98
61537;BME280;48695;53.480;-6.300;2023-02-07T12:52:56;103109.00;;;13.69;59.71
61537;BME280;48695;53.480;-6.300;2023-02-07T12:55:51;103110.78;;;13.79;59.17
61537;BME280;48695;53.480;-6.300;2023-02-07T13:01:06;103096.78;;;13.85;58.72
61537;BME280;48695;53.480;-6.300;2023-02-07T13:06:16;103102.03;;;13.82;58.50
61537;BME280;48695;53.480;-6.300;2023-02-07T13:09:09;103105.53;;;13.82;58.80
61537;BME280;48695;53.480;-6.300;2023-02-07T13:15:01;103102.88;;;13.71;58.14
61537;BME280;48695;53.480;-6.300;2023-02-07T13:21:03;103099.34;;;13.60;58.37
61537;BME280;48695;53.480;-6.300;2023-02-07T13:23:33;103094.94;;;13.53;58.09
61537;BME280;48695;53.480;-6.300;2023-02-07T13:26:08;103092.31;;;13.50;58.13
61537;BME280;48695;53.480;-6.300;2023-02-07T13:31:00;103087.00;;;13.38;58.35
61537;BME280;48695;53.480;-6.300;2023-02-07T13:33:37;103081.75;;;13.38;58.56
61537;BME280;48695;53.480;-6.300;2023-02-07T13:41:34;103074.75;;;13.31;58.46
61537;BME280;48695;53.480;-6.300;2023-02-07T13:49:31;103066.84;;;13.28;58.77
61537;BME280;48695;53.480;-6.300;2023-02-07T13:52:04;103052.00;;;13.28;58.82
61537;BME280;48695;53.480;-6.300;2023-02-07T13:55:01;103049.38;;;13.31;59.21
61537;BME280;48695;53.480;-6.300;2023-02-07T14:00:23;103052.00;;;13.31;59.14
61537;BME280;48695;53.480;-6.300;2023-02-07T14:03:00;103039.75;;;13.29;59.07
61537;BME280;48695;53.480;-6.300;2023-02-07T14:05:32;103045.91;;;13.35;58.72
61537;BME280;48695;53.480;-6.300;2023-02-07T14:08:05;103044.16;;;13.34;59.18
61537;BME280;48695;53.480;-6.300;2023-02-07T14:10:49;103044.13;;;13.33;58.82
61537;BME280;48695;53.480;-6.300;2023-02-07T14:18:45;103043.28;;;13.37;59.46
61537;BME280;48695;53.480;-6.300;2023-02-07T14:21:24;103038.03;;;13.37;59.10
61537;BME280;48695;53.480;-6.300;2023-02-07T14:31:59;103045.06;;;13.56;59.24
61537;BME280;48695;53.480;-6.300;2023-02-07T14:34:30;103044.22;;;13.59;59.32
61537;BME280;48695;53.480;-6.300;2023-02-07T14:36:57;103043.34;;;13.60;59.19
61537;BME280;48695;53.480;-6.300;2023-02-07T14:39:28;103034.56;;;13.53;59.21
61537;BME280;48695;53.480;-6.300;2023-02-07T14:42:01;103046.84;;;13.63;59.13
61537;BME280;48695;53.480;-6.300;2023-02-07T14:44:36;103055.63;;;13.71;58.96
61537;BME280;48695;53.480;-6.300;2023-02-07T14:47:04;103055.63;;;13.71;58.56
61537;BME280;48695;53.480;-6.300;2023-02-07T14:49:46;103057.38;;;13.79;59.16